sensor_id;sensor_type;location;lat;lon;timestamp;P1;durP1;ratioP1;P2;durP2;ratioP2
49910;SDS011;35803;53.096;5.844;2024-03-23T00:54:17;8.48;;;2.83;;
49910;SDS011;35803;53.096;5.844;2024-03-23T00:57:02;12.40;;;2.83;;
49910;SDS011;35803;53.096;5.844;2024-03-23T00:59:48;6.72;;;2.30;;
49910;SDS011;35803;53.096;5.844;2024-03-23T01:02:34;10.18;;;2.47;;
49910;SDS011;35803;53.096;5.844;2024-03-23T01:05:19;8.82;;;2.45;;
49910;SDS011;35803;53.096;5.844;2024-03-23T01:08:05;7.60;;;2.33;;
49910;SDS011;35803;53.096;5.844;2024-03-23T01:10:58;11.25;;;2.40;;
49910;SDS011;35803;53.096;5.844;2024-03-23T01:13:44;11.32;;;2.65;;
49910;SDS011;35803;53.096;5.844;2024-03-23T01:16:30;10.20;;;2.88;;
49910;SDS011;35803;53.096;5.844;2024-03-23T01:19:16;10.52;;;2.08;;
49910;SDS011;35803;53.096;5.844;2024-03-23T01:22:02;10.45;;;2.45;;
49910;SDS011;35803;53.096;5.844;2024-03-23T01:24:47;10.60;;;2.25;;
49910;SDS011;35803;53.096;5.844;2024-03-23T01:27:33;9.80;;;1.98;;
49910;SDS011;35803;53.096;5.844;2024-03-23T01:30:19;6.53;;;2.13;;
49910;SDS011;35803;53.096;5.844;2024-03-23T01:33:05;6.38;;;1.98;;
49910;SDS011;35803;53.096;5.844;2024-03-23T01:35:51;9.05;;;2.30;;
49910;SDS011;35803;53.096;5.844;2024-03-23T01:38:36;9.50;;;2.65;;
49910;SDS011;35803;53.096;5.844;2024-03-23T01:41:31;8.90;;;2.00;;
49910;SDS011;35803;53.096;5.844;2024-03-23T01:44:20;11.95;;;2.22;;
49910;SDS011;35803;53.096;5.844;2024-03-23T01:47:06;9.02;;;1.80;;
49910;SDS011;35803;53.096;5.844;2024-03-23T01:49:52;10.07;;;2.42;;
49910;SDS011;35803;53.096;5.844;2024-03-23T01:52:38;5.97;;;1.73;;
49910;SDS011;35803;53.096;5.844;2024-03-23T01:55:24;6.88;;;1.70;;
49910;SDS011;35803;53.096;5.844;2024-03-23T01:58:10;9.52;;;1.98;;
49910;SDS011;35803;53.096;5.844;2024-03-23T02:00:56;10.82;;;2.00;;
49910;SDS011;35803;53.096;5.844;2024-03-23T02:03:43;7.35;;;2.20;;
49910;SDS011;35803;53.096;5.844;2024-03-23T02:06:28;13.10;;;2.00;;
49910;SDS011;35803;53.096;5.844;2024-03-23T02:09:14;12.82;;;2.42;;
49910;SDS011;35803;53.096;5.844;2024-03-23T02:12:01;9.63;;;1.92;;
49910;SDS011;35803;53.096;5.844;2024-03-23T02:14:47;9.35;;;1.90;;
49910;SDS011;35803;53.096;5.844;2024-03-23T02:17:33;8.68;;;2.10;;
49910;SDS011;35803;53.096;5.844;2024-03-23T02:20:19;15.13;;;2.30;;
49910;SDS011;35803;53.096;5.844;2024-03-23T02:23:05;7.95;;;1.63;;
49910;SDS011;35803;53.096;5.844;2024-03-23T02:25:53;5.78;;;1.95;;
49910;SDS011;35803;53.096;5.844;2024-03-23T02:28:39;6.45;;;1.80;;
49910;SDS011;35803;53.096;5.844;2024-03-23T02:31:25;9.88;;;2.00;;
49910;SDS011;35803;53.096;5.844;2024-03-23T02:34:11;10.38;;;2.10;;
49910;SDS011;35803;53.096;5.844;2024-03-23T02:36:56;8.82;;;2.08;;
49910;SDS011;35803;53.096;5.844;2024-03-23T02:39:42;5.13;;;1.40;;
49910;SDS011;35803;53.096;5.844;2024-03-23T02:42:28;9.82;;;1.95;;
49910;SDS011;35803;53.096;5.844;2024-03-23T02:45:14;8.68;;;1.70;;
49910;SDS011;35803;53.096;5.844;2024-03-23T02:48:00;11.57;;;2.47;;
49910;SDS011;35803;53.096;5.844;2024-03-23T02:50:45;11.93;;;1.80;;
49910;SDS011;35803;53.096;5.844;2024-03-23T02:53:31;8.20;;;1.70;;
49910;SDS011;35803;53.096;5.844;2024-03-23T02:56:17;5.88;;;1.52;;
49910;SDS011;35803;53.096;5.844;2024-03-23T02:59:02;12.23;;;1.95;;
49910;SDS011;35803;53.096;5.844;2024-03-23T03:01:48;11.68;;;1.90;;
49910;SDS011;35803;53.096;5.844;2024-03-23T03:04:34;9.75;;;1.98;;
49910;SDS011;35803;53.096;5.844;2024-03-23T03:07:19;10.57;;;2.20;;
49910;SDS011;35803;53.096;5.844;2024-03-23T03:10:05;6.75;;;1.95;;
49910;SDS011;35803;53.096;5.844;2024-03-23T03:12:53;5.28;;;1.52;;
49910;SDS011;35803;53.096;5.844;2024-03-23T03:15:40;8.02;;;2.13;;
49910;SDS011;35803;53.096;5.844;2024-03-23T03:18:29;8.55;;;1.77;;
49910;SDS011;35803;53.096;5.844;2024-03-23T03:21:15;6.85;;;1.77;;
49910;SDS011;35803;53.096;5.844;2024-03-23T03:24:01;10.70;;;1.70;;
49910;SDS011;35803;53.096;5.844;2024-03-23T03:26:47;8.32;;;1.98;;
49910;SDS011;35803;53.096;5.844;2024-03-23T03:29:33;10.23;;;1.90;;
49910;SDS011;35803;53.096;5.844;2024-03-23T03:32:21;9.75;;;1.75;;
49910;SDS011;35803;53.096;5.844;2024-03-23T03:35:06;8.50;;;1.50;;
49910;SDS011;35803;53.096;5.844;2024-03-23T03:37:52;8.15;;;1.60;;
49910;SDS011;35803;53.096;5.844;2024-03-23T03:40:38;8.90;;;1.80;;
49910;SDS011;35803;53.096;5.844;2024-03-23T03:43:23;10.85;;;1.98;;
49910;SDS011;35803;53.096;5.844;2024-03-23T03:46:09;6.50;;;1.52;;
49910;SDS011;35803;53.096;5.844;2024-03-23T03:48:56;7.05;;;1.90;;
49910;SDS011;35803;53.096;5.844;2024-03-23T03:51:41;13.10;;;1.70;;
49910;SDS011;35803;53.096;5.844;2024-03-23T03:54:27;6.95;;;1.45;;
49910;SDS011;35803;53.096;5.844;2024-03-23T03:57:13;6.13;;;1.73;;
49910;SDS011;35803;53.096;5.844;2024-03-23T03:59:59;8.90;;;1.65;;
49910;SDS011;35803;53.096;5.844;2024-03-23T04:02:44;10.23;;;1.42;;
49910;SDS011;35803;53.096;5.844;2024-03-23T04:05:30;8.60;;;1.75;;
49910;SDS011;35803;53.096;5.844;2024-03-23T04:08:16;9.93;;;1.80;;
49910;SDS011;35803;53.096;5.844;2024-03-23T04:11:02;10.48;;;2.03;;
49910;SDS011;35803;53.096;5.844;2024-03-23T04:13:47;9.57;;;1.58;;
49910;SDS011;35803;53.096;5.844;2024-03-23T04:16:34;7.38;;;1.60;;
49910;SDS011;35803;53.096;5.844;2024-03-23T04:19:20;8.38;;;1.60;;
49910;SDS011;35803;53.096;5.844;2024-03-23T04:22:06;10.25;;;2.05;;
49910;SDS011;35803;53.096;5.844;2024-03-23T04:24:55;7.55;;;1.45;;
49910;SDS011;35803;53.096;5.844;2024-03-23T04:27:41;8.25;;;1.65;;
49910;SDS011;35803;53.096;5.844;2024-03-23T04:30:27;6.03;;;1.70;;
49910;SDS011;35803;53.096;5.844;2024-03-23T04:33:14;7.05;;;1.73;;
49910;SDS011;35803;53.096;5.844;2024-03-23T04:36:00;12.00;;;1.88;;
49910;SDS011;35803;53.096;5.844;2024-03-23T04:38:46;7.57;;;1.67;;
49910;SDS011;35803;53.096;5.844;2024-03-23T04:41:35;3.60;;;1.55;;
49910;SDS011;35803;53.096;5.844;2024-03-23T04:44:21;11.68;;;1.95;;
49910;SDS011;35803;53.096;5.844;2024-03-23T04:47:06;9.93;;;1.90;;
49910;SDS011;35803;53.096;5.844;2024-03-23T04:49:52;5.45;;;1.48;;
49910;SDS011;35803;53.096;5.844;2024-03-23T04:52:38;8.45;;;1.70;;
49910;SDS011;35803;53.096;5.844;2024-03-23T04:55:24;5.20;;;1.42;;
49910;SDS011;35803;53.096;5.844;2024-03-23T04:58:09;6.50;;;1.30;;
49910;SDS011;35803;53.096;5.844;2024-03-23T05:00:56;6.75;;;1.88;;
49910;SDS011;35803;53.096;5.844;2024-03-23T05:03:42;7.18;;;1.80;;
49910;SDS011;35803;53.096;5.844;2024-03-23T05:06:27;8.80;;;1.90;;
49910;SDS011;35803;53.096;5.844;2024-03-23T05:09:14;5.38;;;1.25;;
49910;SDS011;35803;53.096;5.844;2024-03-23T05:12:00;9.45;;;1.60;;
49910;SDS011;35803;53.096;5.844;2024-03-23T05:14:45;8.00;;;1.52;;
49910;SDS011;35803;53.096;5.844;2024-03-23T05:17:31;6.75;;;1.55;;
49910;SDS011;35803;53.096;5.844;2024-03-23T05:20:18;7.95;;;1.50;;
49910;SDS011;35803;53.096;5.844;2024-03-23T05:23:04;5.85;;;2.17;;
49910;SDS011;35803;53.096;5.844;2024-03-23T05:25:50;6.93;;;1.55;;
49910;SDS011;35803;53.096;5.844;2024-03-23T05:28:37;7.75;;;1.80;;
49910;SDS011;35803;53.096;5.844;2024-03-23T05:31:26;7.10;;;1.50;;
49910;SDS011;35803;53.096;5.844;2024-03-23T05:34:12;8.02;;;1.70;;
49910;SDS011;35803;53.096;5.844;2024-03-23T05:36:58;9.48;;;1.67;;
49910;SDS011;35803;53.096;5.844;2024-03-23T05:39:43;6.85;;;1.52;;
49910;SDS011;35803;53.096;5.844;2024-03-23T05:42:29;9.13;;;1.98;;
49910;SDS011;35803;53.096;5.844;2024-03-23T05:45:15;9.40;;;2.03;;
49910;SDS011;35803;53.096;5.844;2024-03-23T05:48:04;9.32;;;2.33;;
49910;SDS011;35803;53.096;5.844;2024-03-23T05:50:50;7.07;;;2.00;;
49910;SDS011;35803;53.096;5.844;2024-03-23T05:53:36;5.75;;;1.95;;
49910;SDS011;35803;53.096;5.844;2024-03-23T05:56:21;6.80;;;2.28;;
49910;SDS011;35803;53.096;5.844;2024-03-23T05:59:07;9.85;;;2.30;;
49910;SDS011;35803;53.096;5.844;2024-03-23T06:01:53;13.57;;;2.15;;
49910;SDS011;35803;53.096;5.844;2024-03-23T06:04:39;7.18;;;2.10;;
49910;SDS011;35803;53.096;5.844;2024-03-23T06:07:25;7.38;;;2.20;;
49910;SDS011;35803;53.096;5.844;2024-03-23T06:10:10;15.25;;;2.22;;
49910;SDS011;35803;53.096;5.844;2024-03-23T06:12:56;7.03;;;1.92;;
49910;SDS011;35803;53.096;5.844;2024-03-23T06:15:41;8.23;;;2.05;;
49910;SDS011;35803;53.096;5.844;2024-03-23T06:18:27;4.78;;;1.80;;
49910;SDS011;35803;53.096;5.844;2024-03-23T06:21:13;10.80;;;1.42;;
49910;SDS011;35803;53.096;5.844;2024-03-23T06:23:59;4.97;;;1.50;;
49910;SDS011;35803;53.096;5.844;2024-03-23T06:26:45;4.85;;;1.50;;
49910;SDS011;35803;53.096;5.844;2024-03-23T06:29:31;3.53;;;1.00;;
49910;SDS011;35803;53.096;5.844;2024-03-23T06:32:17;3.25;;;1.10;;
49910;SDS011;35803;53.096;5.844;2024-03-23T06:35:03;2.15;;;1.40;;
49910;SDS011;35803;53.096;5.844;2024-03-23T06:37:53;2.35;;;1.30;;
49910;SDS011;35803;53.096;5.844;2024-03-23T06:40:39;2.22;;;1.00;;
49910;SDS011;35803;53.096;5.844;2024-03-23T06:43:25;5.13;;;1.15;;
49910;SDS011;35803;53.096;5.844;2024-03-23T06:46:10;4.40;;;1.23;;
49910;SDS011;35803;53.096;5.844;2024-03-23T06:48:56;2.83;;;1.30;;
49910;SDS011;35803;53.096;5.844;2024-03-23T06:51:42;8.55;;;1.60;;
49910;SDS011;35803;53.096;5.844;2024-03-23T06:54:27;6.72;;;1.65;;
49910;SDS011;35803;53.096;5.844;2024-03-23T06:57:13;6.38;;;1.48;;
49910;SDS011;35803;53.096;5.844;2024-03-23T06:59:59;5.07;;;1.65;;
49910;SDS011;35803;53.096;5.844;2024-03-23T07:02:44;5.88;;;1.98;;
49910;SDS011;35803;53.096;5.844;2024-03-23T07:05:30;6.68;;;1.65;;
49910;SDS011;35803;53.096;5.844;2024-03-23T07:08:16;6.97;;;1.55;;
49910;SDS011;35803;53.096;5.844;2024-03-23T07:11:06;8.60;;;1.83;;
49910;SDS011;35803;53.096;5.844;2024-03-23T07:13:52;5.30;;;1.75;;
49910;SDS011;35803;53.096;5.844;2024-03-23T07:16:42;5.80;;;1.95;;
49910;SDS011;35803;53.096;5.844;2024-03-23T07:19:27;11.02;;;2.13;;
49910;SDS011;35803;53.096;5.844;2024-03-23T07:22:13;7.15;;;2.40;;
49910;SDS011;35803;53.096;5.844;2024-03-23T07:25:00;7.65;;;2.15;;
49910;SDS011;35803;53.096;5.844;2024-03-23T07:27:46;7.10;;;2.10;;
49910;SDS011;35803;53.096;5.844;2024-03-23T07:30:32;7.80;;;2.17;;
49910;SDS011;35803;53.096;5.844;2024-03-23T07:33:17;9.13;;;2.38;;
49910;SDS011;35803;53.096;5.844;2024-03-23T07:36:03;6.10;;;2.40;;
49910;SDS011;35803;53.096;5.844;2024-03-23T07:38:50;9.90;;;2.05;;
49910;SDS011;35803;53.096;5.844;2024-03-23T07:41:36;10.63;;;2.60;;
49910;SDS011;35803;53.096;5.844;2024-03-23T07:44:21;6.13;;;2.00;;
49910;SDS011;35803;53.096;5.844;2024-03-23T07:47:07;7.22;;;2.50;;
49910;SDS011;35803;53.096;5.844;2024-03-23T07:49:53;7.70;;;1.90;;
49910;SDS011;35803;53.096;5.844;2024-03-23T07:52:38;8.43;;;2.03;;
49910;SDS011;35803;53.096;5.844;2024-03-23T07:55:24;8.65;;;1.80;;
49910;SDS011;35803;53.096;5.844;2024-03-23T07:58:10;6.70;;;1.83;;
49910;SDS011;35803;53.096;5.844;2024-03-23T08:00:56;7.38;;;1.50;;
49910;SDS011;35803;53.096;5.844;2024-03-23T08:03:43;7.53;;;1.88;;
49910;SDS011;35803;53.096;5.844;2024-03-23T08:06:29;8.57;;;1.92;;
49910;SDS011;35803;53.096;5.844;2024-03-23T08:09:15;5.95;;;1.52;;
49910;SDS011;35803;53.096;5.844;2024-03-23T08:12:00;3.88;;;1.50;;
49910;SDS011;35803;53.096;5.844;2024-03-23T08:14:47;9.10;;;1.80;;
49910;SDS011;35803;53.096;5.844;2024-03-23T08:17:33;5.85;;;1.70;;
49910;SDS011;35803;53.096;5.844;2024-03-23T08:20:18;7.10;;;1.50;;
49910;SDS011;35803;53.096;5.844;2024-03-23T08:23:05;6.80;;;1.52;;
49910;SDS011;35803;53.096;5.844;2024-03-23T08:25:52;7.10;;;1.40;;
49910;SDS011;35803;53.096;5.844;2024-03-23T08:28:38;4.93;;;1.25;;
49910;SDS011;35803;53.096;5.844;2024-03-23T08:31:24;7.00;;;1.60;;
49910;SDS011;35803;53.096;5.844;2024-03-23T08:34:10;5.93;;;1.48;;
49910;SDS011;35803;53.096;5.844;2024-03-23T08:36:55;7.82;;;1.58;;
49910;SDS011;35803;53.096;5.844;2024-03-23T08:39:43;6.32;;;1.50;;
49910;SDS011;35803;53.096;5.844;2024-03-23T08:42:29;7.50;;;1.45;;
49910;SDS011;35803;53.096;5.844;2024-03-23T08:45:15;6.43;;;1.42;;
49910;SDS011;35803;53.096;5.844;2024-03-23T08:48:01;6.55;;;1.67;;
49910;SDS011;35803;53.096;5.844;2024-03-23T08:50:47;7.00;;;1.85;;
49910;SDS011;35803;53.096;5.844;2024-03-23T08:53:33;8.90;;;1.77;;
49910;SDS011;35803;53.096;5.844;2024-03-23T08:56:19;4.30;;;1.40;;
49910;SDS011;35803;53.096;5.844;2024-03-23T08:59:05;4.30;;;1.20;;
49910;SDS011;35803;53.096;5.844;2024-03-23T09:01:51;4.22;;;1.08;;
49910;SDS011;35803;53.096;5.844;2024-03-23T09:04:37;4.88;;;1.40;;
49910;SDS011;35803;53.096;5.844;2024-03-23T09:07:22;7.07;;;1.30;;
49910;SDS011;35803;53.096;5.844;2024-03-23T09:10:08;6.00;;;1.02;;
49910;SDS011;35803;53.096;5.844;2024-03-23T09:12:54;6.82;;;1.27;;
49910;SDS011;35803;53.096;5.844;2024-03-23T09:15:46;4.40;;;1.40;;
49910;SDS011;35803;53.096;5.844;2024-03-23T09:18:34;4.10;;;1.00;;
49910;SDS011;35803;53.096;5.844;2024-03-23T09:21:21;3.42;;;1.20;;
49910;SDS011;35803;53.096;5.844;2024-03-23T09:24:07;4.13;;;1.38;;
49910;SDS011;35803;53.096;5.844;2024-03-23T09:26:52;8.48;;;1.27;;
49910;SDS011;35803;53.096;5.844;2024-03-23T09:29:38;6.15;;;1.45;;
49910;SDS011;35803;53.096;5.844;2024-03-23T09:32:24;4.60;;;1.55;;
49910;SDS011;35803;53.096;5.844;2024-03-23T09:35:10;1.52;;;1.00;;
49910;SDS011;35803;53.096;5.844;2024-03-23T09:37:57;4.30;;;1.05;;
49910;SDS011;35803;53.096;5.844;2024-03-23T09:40:43;3.63;;;1.20;;
49910;SDS011;35803;53.096;5.844;2024-03-23T09:43:28;7.47;;;1.48;;
49910;SDS011;35803;53.096;5.844;2024-03-23T09:46:14;7.78;;;1.42;;
49910;SDS011;35803;53.096;5.844;2024-03-23T09:49:00;5.63;;;1.63;;
49910;SDS011;35803;53.096;5.844;2024-03-23T09:51:46;9.50;;;1.58;;
49910;SDS011;35803;53.096;5.844;2024-03-23T09:54:32;9.43;;;1.77;;
49910;SDS011;35803;53.096;5.844;2024-03-23T09:57:18;7.63;;;1.67;;
49910;SDS011;35803;53.096;5.844;2024-03-23T10:00:04;7.07;;;1.70;;
49910;SDS011;35803;53.096;5.844;2024-03-23T10:02:50;7.70;;;1.35;;
49910;SDS011;35803;53.096;5.844;2024-03-23T10:05:36;3.33;;;1.13;;
49910;SDS011;35803;53.096;5.844;2024-03-23T10:08:22;2.17;;;0.75;;
49910;SDS011;35803;53.096;5.844;2024-03-23T10:11:15;1.15;;;0.60;;
49910;SDS011;35803;53.096;5.844;2024-03-23T10:14:02;2.10;;;0.88;;
49910;SDS011;35803;53.096;5.844;2024-03-23T10:16:48;3.75;;;1.10;;
49910;SDS011;35803;53.096;5.844;2024-03-23T10:19:33;6.40;;;1.52;;
49910;SDS011;35803;53.096;5.844;2024-03-23T10:22:20;4.10;;;1.10;;
49910;SDS011;35803;53.096;5.844;2024-03-23T10:25:10;3.75;;;1.40;;
49910;SDS011;35803;53.096;5.844;2024-03-23T10:27:59;5.80;;;1.40;;
49910;SDS011;35803;53.096;5.844;2024-03-23T10:30:49;6.72;;;1.35;;
49910;SDS011;35803;53.096;5.844;2024-03-23T10:33:35;6.38;;;1.95;;
49910;SDS011;35803;53.096;5.844;2024-03-23T10:36:22;7.30;;;1.38;;
49910;SDS011;35803;53.096;5.844;2024-03-23T10:39:08;4.95;;;1.50;;
49910;SDS011;35803;53.096;5.844;2024-03-23T10:41:54;5.20;;;1.50;;
49910;SDS011;35803;53.096;5.844;2024-03-23T10:44:41;3.40;;;1.35;;
49910;SDS011;35803;53.096;5.844;2024-03-23T10:47:27;4.38;;;1.77;;
49910;SDS011;35803;53.096;5.844;2024-03-23T10:50:13;4.03;;;1.50;;
49910;SDS011;35803;53.096;5.844;2024-03-23T10:52:58;6.53;;;1.58;;
49910;SDS011;35803;53.096;5.844;2024-03-23T10:55:44;6.07;;;1.85;;
49910;SDS011;35803;53.096;5.844;2024-03-23T10:58:46;6.13;;;1.60;;
49910;SDS011;35803;53.096;5.844;2024-03-23T11:04:31;6.25;;;1.73;;
49910;SDS011;35803;53.096;5.844;2024-03-23T11:07:30;5.78;;;1.60;;
49910;SDS011;35803;53.096;5.844;2024-03-23T11:10:26;6.22;;;1.45;;
49910;SDS011;35803;53.096;5.844;2024-03-23T11:13:23;7.30;;;1.60;;
49910;SDS011;35803;53.096;5.844;2024-03-23T11:16:13;6.47;;;2.30;;
49910;SDS011;35803;53.096;5.844;2024-03-23T11:25:25;4.72;;;1.13;;
49910;SDS011;35803;53.096;5.844;2024-03-23T11:28:11;4.57;;;1.30;;
49910;SDS011;35803;53.096;5.844;2024-03-23T11:30:57;1.85;;;0.98;;
49910;SDS011;35803;53.096;5.844;2024-03-23T11:33:43;6.20;;;1.25;;
49910;SDS011;35803;53.096;5.844;2024-03-23T11:36:29;8.98;;;0.93;;
49910;SDS011;35803;53.096;5.844;2024-03-23T11:39:15;5.40;;;1.30;;
49910;SDS011;35803;53.096;5.844;2024-03-23T11:42:02;6.32;;;1.58;;
49910;SDS011;35803;53.096;5.844;2024-03-23T11:44:48;6.63;;;1.05;;
49910;SDS011;35803;53.096;5.844;2024-03-23T11:47:33;6.07;;;1.38;;
49910;SDS011;35803;53.096;5.844;2024-03-23T11:50:19;5.13;;;1.38;;
49910;SDS011;35803;53.096;5.844;2024-03-23T11:53:26;6.40;;;1.27;;
49910;SDS011;35803;53.096;5.844;2024-03-23T11:56:14;3.50;;;1.50;;
49910;SDS011;35803;53.096;5.844;2024-03-23T11:59:00;7.57;;;1.60;;
49910;SDS011;35803;53.096;5.844;2024-03-23T12:01:45;8.02;;;2.10;;
49910;SDS011;35803;53.096;5.844;2024-03-23T12:04:31;3.83;;;1.55;;
49910;SDS011;35803;53.096;5.844;2024-03-23T12:07:18;3.47;;;0.90;;
49910;SDS011;35803;53.096;5.844;2024-03-23T12:10:04;5.13;;;1.98;;
49910;SDS011;35803;53.096;5.844;2024-03-23T12:12:59;2.28;;;1.27;;
49910;SDS011;35803;53.096;5.844;2024-03-23T12:15:46;6.57;;;2.20;;
49910;SDS011;35803;53.096;5.844;2024-03-23T12:18:32;2.45;;;1.55;;
49910;SDS011;35803;53.096;5.844;2024-03-23T12:21:18;6.30;;;1.80;;
49910;SDS011;35803;53.096;5.844;2024-03-23T12:24:04;6.07;;;1.50;;
49910;SDS011;35803;53.096;5.844;2024-03-23T12:26:50;5.45;;;1.73;;
49910;SDS011;35803;53.096;5.844;2024-03-23T12:29:36;8.25;;;1.45;;
49910;SDS011;35803;53.096;5.844;2024-03-23T12:32:21;4.50;;;1.20;;
49910;SDS011;35803;53.096;5.844;2024-03-23T12:35:07;8.50;;;1.55;;
49910;SDS011;35803;53.096;5.844;2024-03-23T12:37:54;4.75;;;1.20;;
49910;SDS011;35803;53.096;5.844;2024-03-23T12:40:40;4.63;;;1.27;;
49910;SDS011;35803;53.096;5.844;2024-03-23T12:43:26;5.32;;;1.60;;
49910;SDS011;35803;53.096;5.844;2024-03-23T12:46:12;7.10;;;1.20;;
49910;SDS011;35803;53.096;5.844;2024-03-23T12:48:58;7.85;;;1.65;;
49910;SDS011;35803;53.096;5.844;2024-03-23T12:51:46;6.47;;;1.80;;
49910;SDS011;35803;53.096;5.844;2024-03-23T12:54:38;7.47;;;1.55;;
49910;SDS011;35803;53.096;5.844;2024-03-23T12:57:24;7.00;;;2.05;;
49910;SDS011;35803;53.096;5.844;2024-03-23T13:00:10;9.23;;;1.95;;
49910;SDS011;35803;53.096;5.844;2024-03-23T13:03:01;12.90;;;2.10;;
49910;SDS011;35803;53.096;5.844;2024-03-23T13:05:51;11.38;;;2.20;;
49910;SDS011;35803;53.096;5.844;2024-03-23T13:08:37;10.60;;;1.83;;
49910;SDS011;35803;53.096;5.844;2024-03-23T13:11:23;4.95;;;1.75;;
49910;SDS011;35803;53.096;5.844;2024-03-23T13:14:09;4.10;;;1.50;;
49910;SDS011;35803;53.096;5.844;2024-03-23T13:16:54;6.50;;;1.70;;
49910;SDS011;35803;53.096;5.844;2024-03-23T13:19:40;8.57;;;1.55;;
49910;SDS011;35803;53.096;5.844;2024-03-23T13:22:26;5.53;;;1.67;;
49910;SDS011;35803;53.096;5.844;2024-03-23T13:25:12;6.28;;;1.70;;
49910;SDS011;35803;53.096;5.844;2024-03-23T13:27:58;7.78;;;1.58;;
49910;SDS011;35803;53.096;5.844;2024-03-23T13:30:50;5.90;;;1.80;;
49910;SDS011;35803;53.096;5.844;2024-03-23T13:33:43;6.53;;;1.60;;
49910;SDS011;35803;53.096;5.844;2024-03-23T13:36:29;5.90;;;1.20;;
49910;SDS011;35803;53.096;5.844;2024-03-23T13:39:15;6.85;;;1.80;;
49910;SDS011;35803;53.096;5.844;2024-03-23T13:42:01;4.50;;;1.55;;
49910;SDS011;35803;53.096;5.844;2024-03-23T13:44:46;8.25;;;1.60;;
49910;SDS011;35803;53.096;5.844;2024-03-23T13:47:32;4.75;;;1.98;;
49910;SDS011;35803;53.096;5.844;2024-03-23T13:50:18;4.80;;;1.23;;
49910;SDS011;35803;53.096;5.844;2024-03-23T13:53:03;5.90;;;1.20;;
49910;SDS011;35803;53.096;5.844;2024-03-23T13:55:49;6.35;;;1.65;;
49910;SDS011;35803;53.096;5.844;2024-03-23T13:58:35;6.13;;;1.40;;
49910;SDS011;35803;53.096;5.844;2024-03-23T14:01:21;6.53;;;1.25;;
49910;SDS011;35803;53.096;5.844;2024-03-23T14:04:07;7.80;;;1.30;;
49910;SDS011;35803;53.096;5.844;2024-03-23T14:06:53;5.55;;;1.42;;
49910;SDS011;35803;53.096;5.844;2024-03-23T14:09:38;7.32;;;1.48;;
49910;SDS011;35803;53.096;5.844;2024-03-23T14:12:24;8.38;;;1.40;;
49910;SDS011;35803;53.096;5.844;2024-03-23T14:15:11;8.15;;;1.50;;
49910;SDS011;35803;53.096;5.844;2024-03-23T14:17:57;4.03;;;1.38;;
49910;SDS011;35803;53.096;5.844;2024-03-23T14:20:42;5.38;;;1.13;;
49910;SDS011;35803;53.096;5.844;2024-03-23T14:23:28;2.38;;;0.90;;
49910;SDS011;35803;53.096;5.844;2024-03-23T14:26:15;6.93;;;1.30;;
49910;SDS011;35803;53.096;5.844;2024-03-23T14:29:01;4.72;;;1.15;;
49910;SDS011;35803;53.096;5.844;2024-03-23T14:31:48;5.75;;;1.33;;
49910;SDS011;35803;53.096;5.844;2024-03-23T14:34:35;9.32;;;1.60;;
49910;SDS011;35803;53.096;5.844;2024-03-23T14:37:20;7.55;;;1.67;;
49910;SDS011;35803;53.096;5.844;2024-03-23T14:40:06;7.28;;;1.88;;
49910;SDS011;35803;53.096;5.844;2024-03-23T14:42:53;12.52;;;2.33;;
49910;SDS011;35803;53.096;5.844;2024-03-23T14:45:48;7.55;;;1.98;;
49910;SDS011;35803;53.096;5.844;2024-03-23T14:48:51;9.07;;;2.22;;
49910;SDS011;35803;53.096;5.844;2024-03-23T14:51:37;11.40;;;1.98;;
49910;SDS011;35803;53.096;5.844;2024-03-23T14:54:22;3.08;;;1.20;;
49910;SDS011;35803;53.096;5.844;2024-03-23T14:57:09;6.03;;;1.50;;
49910;SDS011;35803;53.096;5.844;2024-03-23T14:59:55;7.35;;;1.33;;
49910;SDS011;35803;53.096;5.844;2024-03-23T15:02:41;4.95;;;1.50;;
49910;SDS011;35803;53.096;5.844;2024-03-23T15:05:26;8.57;;;2.20;;
49910;SDS011;35803;53.096;5.844;2024-03-23T15:08:12;5.40;;;1.50;;
49910;SDS011;35803;53.096;5.844;2024-03-23T15:10:58;12.52;;;1.67;;
49910;SDS011;35803;53.096;5.844;2024-03-23T15:13:45;8.18;;;1.77;;
49910;SDS011;35803;53.096;5.844;2024-03-23T15:16:32;4.65;;;2.05;;
49910;SDS011;35803;53.096;5.844;2024-03-23T15:19:18;6.53;;;1.70;;
49910;SDS011;35803;53.096;5.844;2024-03-23T15:22:03;5.53;;;1.35;;
49910;SDS011;35803;53.096;5.844;2024-03-23T15:24:49;9.65;;;1.98;;
49910;SDS011;35803;53.096;5.844;2024-03-23T15:27:35;7.13;;;1.55;;
49910;SDS011;35803;53.096;5.844;2024-03-23T15:30:20;7.90;;;1.10;;
49910;SDS011;35803;53.096;5.844;2024-03-23T15:33:06;5.35;;;1.05;;
49910;SDS011;35803;53.096;5.844;2024-03-23T15:35:52;3.95;;;0.73;;
49910;SDS011;35803;53.096;5.844;2024-03-23T15:38:38;3.15;;;0.80;;
49910;SDS011;35803;53.096;5.844;2024-03-23T15:41:24;3.55;;;1.05;;
49910;SDS011;35803;53.096;5.844;2024-03-23T15:44:10;3.15;;;1.00;;
49910;SDS011;35803;53.096;5.844;2024-03-23T15:46:55;3.60;;;0.93;;
49910;SDS011;35803;53.096;5.844;2024-03-23T15:49:41;4.30;;;1.30;;
49910;SDS011;35803;53.096;5.844;2024-03-23T15:52:27;3.40;;;1.02;;
49910;SDS011;35803;53.096;5.844;2024-03-23T15:55:13;3.03;;;1.13;;
49910;SDS011;35803;53.096;5.844;2024-03-23T15:57:59;7.32;;;1.60;;
49910;SDS011;35803;53.096;5.844;2024-03-23T16:00:44;6.55;;;1.17;;
49910;SDS011;35803;53.096;5.844;2024-03-23T16:03:31;5.75;;;1.20;;
49910;SDS011;35803;53.096;5.844;2024-03-23T16:06:18;6.85;;;1.50;;
49910;SDS011;35803;53.096;5.844;2024-03-23T16:09:03;3.40;;;1.27;;
49910;SDS011;35803;53.096;5.844;2024-03-23T16:11:49;5.07;;;1.38;;
49910;SDS011;35803;53.096;5.844;2024-03-23T16:14:35;11.57;;;1.67;;
49910;SDS011;35803;53.096;5.844;2024-03-23T16:17:20;6.95;;;1.45;;
49910;SDS011;35803;53.096;5.844;2024-03-23T16:20:06;5.70;;;1.25;;
49910;SDS011;35803;53.096;5.844;2024-03-23T16:22:54;4.15;;;1.73;;
49910;SDS011;35803;53.096;5.844;2024-03-23T16:25:45;8.90;;;1.55;;
49910;SDS011;35803;53.096;5.844;2024-03-23T16:28:35;8.60;;;1.67;;
49910;SDS011;35803;53.096;5.844;2024-03-23T16:31:21;10.20;;;1.52;;
49910;SDS011;35803;53.096;5.844;2024-03-23T16:34:07;5.10;;;1.45;;
49910;SDS011;35803;53.096;5.844;2024-03-23T16:36:53;6.15;;;1.52;;
49910;SDS011;35803;53.096;5.844;2024-03-23T16:39:39;9.25;;;1.60;;
49910;SDS011;35803;53.096;5.844;2024-03-23T16:42:24;3.95;;;1.50;;
49910;SDS011;35803;53.096;5.844;2024-03-23T16:45:10;5.57;;;1.65;;
49910;SDS011;35803;53.096;5.844;2024-03-23T16:47:56;5.90;;;2.20;;
49910;SDS011;35803;53.096;5.844;2024-03-23T16:50:43;4.55;;;1.55;;
49910;SDS011;35803;53.096;5.844;2024-03-23T16:53:28;8.65;;;2.30;;
49910;SDS011;35803;53.096;5.844;2024-03-23T16:56:16;5.35;;;1.70;;
49910;SDS011;35803;53.096;5.844;2024-03-23T16:59:01;4.13;;;1.23;;
49910;SDS011;35803;53.096;5.844;2024-03-23T17:01:47;7.05;;;1.83;;
49910;SDS011;35803;53.096;5.844;2024-03-23T17:04:33;3.88;;;1.42;;
49910;SDS011;35803;53.096;5.844;2024-03-23T17:07:18;4.68;;;1.40;;
49910;SDS011;35803;53.096;5.844;2024-03-23T17:10:04;6.47;;;1.80;;
49910;SDS011;35803;53.096;5.844;2024-03-23T17:12:50;5.55;;;1.30;;
49910;SDS011;35803;53.096;5.844;2024-03-23T17:15:42;7.68;;;2.10;;
49910;SDS011;35803;53.096;5.844;2024-03-23T17:18:31;9.27;;;2.40;;
49910;SDS011;35803;53.096;5.844;2024-03-23T17:21:17;9.88;;;1.98;;
49910;SDS011;35803;53.096;5.844;2024-03-23T17:24:03;11.63;;;2.83;;
49910;SDS011;35803;53.096;5.844;2024-03-23T17:26:50;8.18;;;2.13;;
49910;SDS011;35803;53.096;5.844;2024-03-23T17:29:35;11.48;;;2.67;;
49910;SDS011;35803;53.096;5.844;2024-03-23T17:32:21;7.40;;;2.20;;
49910;SDS011;35803;53.096;5.844;2024-03-23T17:35:07;6.40;;;2.00;;
49910;SDS011;35803;53.096;5.844;2024-03-23T17:37:52;10.90;;;1.85;;
49910;SDS011;35803;53.096;5.844;2024-03-23T17:40:38;6.90;;;1.75;;
49910;SDS011;35803;53.096;5.844;2024-03-23T17:43:24;7.90;;;1.80;;